Aviation Digital Data Service (ADDS)

Output produced by METARs form (1358 UTC 22 April 2019)
found at http://www.aviationweather.gov/metar/data/
 
METAR text: HRYR 221330Z 31008KT 9999 SCT025 BKN100 19/16 Q1019 NOSIG
Conditions at: HRYR (KIGALI , RW) observed 1330 UTC 22 April 2019
Temperature: 19.0°C (66°F)
Dewpoint: 16.0°C (61°F) [RH = 83%]
Pressure (altimeter): 30.09 inches Hg (1019.0 mb)
Winds: from the NW (310 degrees) at 9 MPH (8 knots; 4.1 m/s)
Visibility: 6 or more miles (10+ km)
Ceiling: 10000 feet AGL
Clouds: scattered clouds at 2500 feet AGL
broken clouds at 10000 feet AGL
Weather: no significant weather observed at this time

METAR text: HRYR 221230Z 32007KT 9999 -RA FEW005 SCT025 OVC100 17/16 Q1020
Conditions at: HRYR (KIGALI , RW) observed 1230 UTC 22 April 2019
Temperature: 17.0°C (63°F)
Dewpoint: 16.0°C (61°F) [RH = 94%]
Pressure (altimeter): 30.12 inches Hg (1020.0 mb)
Winds: from the NW (320 degrees) at 8 MPH (7 knots; 3.6 m/s)
Visibility: 6 or more miles (10+ km)
Ceiling: 10000 feet AGL
Clouds: few clouds at 500 feet AGL
scattered clouds at 2500 feet AGL
overcast cloud deck at 10000 feet AGL
Weather: -RA  (light rain)

METAR text: HRYR 221200Z 31007KT 9999 -RA FEW005 SCT025 OVC100 17/16 Q1021 NOSIG
Conditions at: HRYR (KIGALI , RW) observed 1200 UTC 22 April 2019
Temperature: 17.0°C (63°F)
Dewpoint: 16.0°C (61°F) [RH = 94%]
Pressure (altimeter): 30.15 inches Hg (1021.0 mb)
Winds: from the NW (310 degrees) at 8 MPH (7 knots; 3.6 m/s)
Visibility: 6 or more miles (10+ km)
Ceiling: 10000 feet AGL
Clouds: few clouds at 500 feet AGL
scattered clouds at 2500 feet AGL
overcast cloud deck at 10000 feet AGL
Weather: -RA  (light rain)

METAR text: HRYR 221130Z 34009KT 310V030 9999 -RA FEW008 BKN025 BKN100 17/15 Q1022 NSC
Conditions at: HRYR (KIGALI , RW) observed 1130 UTC 22 April 2019
Temperature: 17.0°C (63°F)
Dewpoint: 15.0°C (59°F) [RH = 88%]
Pressure (altimeter): 30.18 inches Hg (1022.0 mb)
Winds: from the NNW (340 degrees) at 10 MPH (9 knots; 4.6 m/s)
Visibility: 6 or more miles (10+ km)
Ceiling: 2500 feet AGL
Clouds: few clouds at 800 feet AGL
broken clouds at 2500 feet AGL
broken clouds at 10000 feet AGL
Weather: -RA  (light rain)

METAR text: HRYR 221100Z VRB02KT 8000 -RA BKN008 FEW022CB BKN023 16/16 Q1022 RERA
Conditions at: HRYR (KIGALI , RW) observed 1100 UTC 22 April 2019
Temperature: 16.0°C (61°F)
Dewpoint: 16.0°C (61°F) [RH = 100%]
Pressure (altimeter): 30.18 inches Hg (1022.0 mb)
Winds: variable direction winds at 2 MPH (2 knots; 1.0 m/s)
Visibility: 5 miles ( 8 km)
Ceiling: 800 feet AGL
Clouds: broken clouds at 800 feet AGL
few clouds at 2200 feet AGL
broken clouds at 2300 feet AGL
Weather: -RA  (light rain)

METAR text: HRYR 221030Z 03010KT 3400 TSRA BKN004 FEW020CB BKN023 17/17 Q1022 NOSIG
Conditions at: HRYR (KIGALI , RW) observed 1030 UTC 22 April 2019
Temperature: 17.0°C (63°F)
Dewpoint: 17.0°C (63°F) [RH = 100%]
Pressure (altimeter): 30.18 inches Hg (1022.0 mb)
Winds: from the NNE (30 degrees) at 12 MPH (10 knots; 5.1 m/s)
Visibility: 2.11 miles (3.40 km)
Ceiling: 400 feet AGL
Clouds: broken clouds at 400 feet AGL
few clouds at 2000 feet AGL
broken clouds at 2300 feet AGL
Weather: TSRA  (rain associated with thunderstorm(s))

METAR text: HRYR 221000Z 06008KT 6000 -TSRA SCT004 FEW020CB BKN023 17/17 Q1022 NOSIG
Conditions at: HRYR (KIGALI , RW) observed 1000 UTC 22 April 2019
Temperature: 17.0°C (63°F)
Dewpoint: 17.0°C (63°F) [RH = 100%]
Pressure (altimeter): 30.18 inches Hg (1022.0 mb)
Winds: from the ENE (60 degrees) at 9 MPH (8 knots; 4.1 m/s)
Visibility: 4 miles ( 6 km)
Ceiling: 2300 feet AGL
Clouds: scattered clouds at 400 feet AGL
few clouds at 2000 feet AGL
broken clouds at 2300 feet AGL
Weather: -TSRA  (light rain associated with thunderstorm(s))

METAR text: HRYR 220930Z 06011KT 3500 -RA SCT004 FEW022CB BKN023 18/18 Q1022 NOSIG
Conditions at: HRYR (KIGALI , RW) observed 0930 UTC 22 April 2019
Temperature: 18.0°C (64°F)
Dewpoint: 18.0°C (64°F) [RH = 100%]
Pressure (altimeter): 30.18 inches Hg (1022.0 mb)
Winds: from the ENE (60 degrees) at 13 MPH (11 knots; 5.7 m/s)
Visibility: 2.17 miles (3.49 km)
Ceiling: 2300 feet AGL
Clouds: scattered clouds at 400 feet AGL
few clouds at 2200 feet AGL
broken clouds at 2300 feet AGL
Weather: -RA  (light rain)

METAR text: HRYR 220900Z 13004KT 9999 -RA FEW022CB BKN023 20/17 Q1022 NOSIG
Conditions at: HRYR (KIGALI , RW) observed 0900 UTC 22 April 2019
Temperature: 20.0°C (68°F)
Dewpoint: 17.0°C (63°F) [RH = 83%]
Pressure (altimeter): 30.18 inches Hg (1022.0 mb)
Winds: from the SE (130 degrees) at 5 MPH (4 knots; 2.1 m/s)
Visibility: 6 or more miles (10+ km)
Ceiling: 2300 feet AGL
Clouds: few clouds at 2200 feet AGL
broken clouds at 2300 feet AGL
Weather: -RA  (light rain)

METAR text: HRYR 220830Z 17004KT 9999 FEW022CB BKN025 20/17 Q1022 NOSIG
Conditions at: HRYR (KIGALI , RW) observed 0830 UTC 22 April 2019
Temperature: 20.0°C (68°F)
Dewpoint: 17.0°C (63°F) [RH = 83%]
Pressure (altimeter): 30.18 inches Hg (1022.0 mb)
Winds: from the S (170 degrees) at 5 MPH (4 knots; 2.1 m/s)
Visibility: 6 or more miles (10+ km)
Ceiling: 2500 feet AGL
Clouds: few clouds at 2200 feet AGL
broken clouds at 2500 feet AGL
Weather: no significant weather observed at this time

METAR text: HRYR 220800Z 14005KT 9999 BKN025 BKN100 20/18 Q1022 BECMG RA
Conditions at: HRYR (KIGALI , RW) observed 0800 UTC 22 April 2019
Temperature: 20.0°C (68°F)
Dewpoint: 18.0°C (64°F) [RH = 88%]
Pressure (altimeter): 30.18 inches Hg (1022.0 mb)
Winds: from the SE (140 degrees) at 6 MPH (5 knots; 2.6 m/s)
Visibility: 6 or more miles (10+ km)
Ceiling: 2500 feet AGL
Clouds: broken clouds at 2500 feet AGL
broken clouds at 10000 feet AGL
Weather: no significant weather observed at this time

METAR text: HRYR 220730Z 04003KT 9999 BKN025 BKN100 20/17 Q1021 NOSIG
Conditions at: HRYR (KIGALI , RW) observed 0730 UTC 22 April 2019
Temperature: 20.0°C (68°F)
Dewpoint: 17.0°C (63°F) [RH = 83%]
Pressure (altimeter): 30.15 inches Hg (1021.0 mb)
Winds: from the NE (40 degrees) at 3 MPH (3 knots; 1.5 m/s)
Visibility: 6 or more miles (10+ km)
Ceiling: 2500 feet AGL
Clouds: broken clouds at 2500 feet AGL
broken clouds at 10000 feet AGL
Weather: no significant weather observed at this time

METAR text: HRYR 220700Z 01003KT 9999 BKN025 BKN100 20/17 Q1021 NOSIG
Conditions at: HRYR (KIGALI , RW) observed 0700 UTC 22 April 2019
Temperature: 20.0°C (68°F)
Dewpoint: 17.0°C (63°F) [RH = 83%]
Pressure (altimeter): 30.15 inches Hg (1021.0 mb)
Winds: from the N (10 degrees) at 3 MPH (3 knots; 1.5 m/s)
Visibility: 6 or more miles (10+ km)
Ceiling: 2500 feet AGL
Clouds: broken clouds at 2500 feet AGL
broken clouds at 10000 feet AGL
Weather: no significant weather observed at this time

METAR text: HRYR 220630Z 25004KT 9999 BKN025 BKN100 19/17 Q1021 NOSIG
Conditions at: HRYR (KIGALI , RW) observed 0630 UTC 22 April 2019
Temperature: 19.0°C (66°F)
Dewpoint: 17.0°C (63°F) [RH = 88%]
Pressure (altimeter): 30.15 inches Hg (1021.0 mb)
Winds: from the WSW (250 degrees) at 5 MPH (4 knots; 2.1 m/s)
Visibility: 6 or more miles (10+ km)
Ceiling: 2500 feet AGL
Clouds: broken clouds at 2500 feet AGL
broken clouds at 10000 feet AGL
Weather: no significant weather observed at this time

METAR text: HRYR 220600Z 28003KT 9999 BKN025 SCT100 19/17 Q1021 NOSIG
Conditions at: HRYR (KIGALI , RW) observed 0600 UTC 22 April 2019
Temperature: 19.0°C (66°F)
Dewpoint: 17.0°C (63°F) [RH = 88%]
Pressure (altimeter): 30.15 inches Hg (1021.0 mb)
Winds: from the W (280 degrees) at 3 MPH (3 knots; 1.5 m/s)
Visibility: 6 or more miles (10+ km)
Ceiling: 2500 feet AGL
Clouds: broken clouds at 2500 feet AGL
scattered clouds at 10000 feet AGL
Weather: no significant weather observed at this time

METAR text: HRYR 220530Z 36004KT 9999 BKN025 SCT100 18/17 Q1020 NOSIG
Conditions at: HRYR (KIGALI , RW) observed 0530 UTC 22 April 2019
Temperature: 18.0°C (64°F)
Dewpoint: 17.0°C (63°F) [RH = 94%]
Pressure (altimeter): 30.12 inches Hg (1020.0 mb)
Winds: from the N (360 degrees) at 5 MPH (4 knots; 2.1 m/s)
Visibility: 6 or more miles (10+ km)
Ceiling: 2500 feet AGL
Clouds: broken clouds at 2500 feet AGL
scattered clouds at 10000 feet AGL
Weather: no significant weather observed at this time

METAR text: HRYR 220500Z 31006KT 9999 SCT025 BKN100 18/16 Q1020 NOSIG
Conditions at: HRYR (KIGALI , RW) observed 0500 UTC 22 April 2019
Temperature: 18.0°C (64°F)
Dewpoint: 16.0°C (61°F) [RH = 88%]
Pressure (altimeter): 30.12 inches Hg (1020.0 mb)
Winds: from the NW (310 degrees) at 7 MPH (6 knots; 3.1 m/s)
Visibility: 6 or more miles (10+ km)
Ceiling: 10000 feet AGL
Clouds: scattered clouds at 2500 feet AGL
broken clouds at 10000 feet AGL
Weather: no significant weather observed at this time

METAR text: HRYR 220430Z 01003KT 9999 SCT026 BKN100 17/16 Q1020 NOSIG
Conditions at: HRYR (KIGALI , RW) observed 0430 UTC 22 April 2019
Temperature: 17.0°C (63°F)
Dewpoint: 16.0°C (61°F) [RH = 94%]
Pressure (altimeter): 30.12 inches Hg (1020.0 mb)
Winds: from the N (10 degrees) at 3 MPH (3 knots; 1.5 m/s)
Visibility: 6 or more miles (10+ km)
Ceiling: 10000 feet AGL
Clouds: scattered clouds at 2600 feet AGL
broken clouds at 10000 feet AGL
Weather: no significant weather observed at this time

METAR text: HRYR 220400Z VRB01KT 9000 SCT026 SCT100 17/16 Q1019 NOSIG
Conditions at: HRYR (KIGALI , RW) observed 0400 UTC 22 April 2019
Temperature: 17.0°C (63°F)
Dewpoint: 16.0°C (61°F) [RH = 94%]
Pressure (altimeter): 30.09 inches Hg (1019.0 mb)
Winds: variable direction winds at 1 MPH (1 knots; 0.5 m/s)
Visibility: 6 miles ( 9 km)
Ceiling: at least 12,000 feet AGL
Clouds: scattered clouds at 2600 feet AGL
scattered clouds at 10000 feet AGL
Weather: no significant weather observed at this time

METAR text: HRYR 220330Z VRB02KT 9999 SCT026 SCT100 17/16 Q1018 NOSIG
Conditions at: HRYR (KIGALI , RW) observed 0330 UTC 22 April 2019
Temperature: 17.0°C (63°F)
Dewpoint: 16.0°C (61°F) [RH = 94%]
Pressure (altimeter): 30.06 inches Hg (1018.0 mb)
Winds: variable direction winds at 2 MPH (2 knots; 1.0 m/s)
Visibility: 6 or more miles (10+ km)
Ceiling: at least 12,000 feet AGL
Clouds: scattered clouds at 2600 feet AGL
scattered clouds at 10000 feet AGL
Weather: no significant weather observed at this time

METAR text: HRYR 220300Z 22002KT 9999 SCT026 SCT100 17/16 Q1018 NOSIG
Conditions at: HRYR (KIGALI , RW) observed 0300 UTC 22 April 2019
Temperature: 17.0°C (63°F)
Dewpoint: 16.0°C (61°F) [RH = 94%]
Pressure (altimeter): 30.06 inches Hg (1018.0 mb)
Winds: from the SW (220 degrees) at 2 MPH (2 knots; 1.0 m/s)
Visibility: 6 or more miles (10+ km)
Ceiling: at least 12,000 feet AGL
Clouds: scattered clouds at 2600 feet AGL
scattered clouds at 10000 feet AGL
Weather: no significant weather observed at this time

METAR text: HRYR 220230Z 03002KT 9999 SCT026 SCT100 17/16 Q1018 NOSIG
Conditions at: HRYR (KIGALI , RW) observed 0230 UTC 22 April 2019
Temperature: 17.0°C (63°F)
Dewpoint: 16.0°C (61°F) [RH = 94%]
Pressure (altimeter): 30.06 inches Hg (1018.0 mb)
Winds: from the NNE (30 degrees) at 2 MPH (2 knots; 1.0 m/s)
Visibility: 6 or more miles (10+ km)
Ceiling: at least 12,000 feet AGL
Clouds: scattered clouds at 2600 feet AGL
scattered clouds at 10000 feet AGL
Weather: no significant weather observed at this time

METAR text: HRYR 220200Z 30003KT 9999 SCT026 SCT100 17/16 Q1017 NOSIG
Conditions at: HRYR (KIGALI , RW) observed 0200 UTC 22 April 2019
Temperature: 17.0°C (63°F)
Dewpoint: 16.0°C (61°F) [RH = 94%]
Pressure (altimeter): 30.03 inches Hg (1017.0 mb)
Winds: from the WNW (300 degrees) at 3 MPH (3 knots; 1.5 m/s)
Visibility: 6 or more miles (10+ km)
Ceiling: at least 12,000 feet AGL
Clouds: scattered clouds at 2600 feet AGL
scattered clouds at 10000 feet AGL
Weather: no significant weather observed at this time

METAR text: HRYR 220130Z 03003KT 350V050 9999 FEW026 SCT100 18/16 Q1018 NOSIG
Conditions at: HRYR (KIGALI , RW) observed 0130 UTC 22 April 2019
Temperature: 18.0°C (64°F)
Dewpoint: 16.0°C (61°F) [RH = 88%]
Pressure (altimeter): 30.06 inches Hg (1018.0 mb)
Winds: from the NNE (30 degrees) at 3 MPH (3 knots; 1.5 m/s)
Visibility: 6 or more miles (10+ km)
Ceiling: at least 12,000 feet AGL
Clouds: few clouds at 2600 feet AGL
scattered clouds at 10000 feet AGL
Weather: no significant weather observed at this time

METAR text: HRYR 220100Z 28003KT 9999 SCT026 18/16 Q1017 NOSIG
Conditions at: HRYR (KIGALI , RW) observed 0100 UTC 22 April 2019
Temperature: 18.0°C (64°F)
Dewpoint: 16.0°C (61°F) [RH = 88%]
Pressure (altimeter): 30.03 inches Hg (1017.0 mb)
Winds: from the W (280 degrees) at 3 MPH (3 knots; 1.5 m/s)
Visibility: 6 or more miles (10+ km)
Ceiling: at least 12,000 feet AGL
Clouds: scattered clouds at 2600 feet AGL
Weather: no significant weather observed at this time

METAR text: HRYR 220030Z VRB02KT 9999 SCT026 18/16 Q1017 NOSIG
Conditions at: HRYR (KIGALI , RW) observed 0030 UTC 22 April 2019
Temperature: 18.0°C (64°F)
Dewpoint: 16.0°C (61°F) [RH = 88%]
Pressure (altimeter): 30.03 inches Hg (1017.0 mb)
Winds: variable direction winds at 2 MPH (2 knots; 1.0 m/s)
Visibility: 6 or more miles (10+ km)
Ceiling: at least 12,000 feet AGL
Clouds: scattered clouds at 2600 feet AGL
Weather: no significant weather observed at this time

METAR text: HRYR 220000Z 00000KT 9999 SCT026 18/16 Q1017 NOSIG
Conditions at: HRYR (KIGALI , RW) observed 0000 UTC 22 April 2019
Temperature: 18.0°C (64°F)
Dewpoint: 16.0°C (61°F) [RH = 88%]
Pressure (altimeter): 30.03 inches Hg (1017.0 mb)
Winds: calm
Visibility: 6 or more miles (10+ km)
Ceiling: at least 12,000 feet AGL
Clouds: scattered clouds at 2600 feet AGL
Weather: no significant weather observed at this time

METAR text: HRYR 212330Z 24003KT 190V270 9999 FEW025 18/16 Q1018 NOSIG
Conditions at: HRYR (KIGALI , RW) observed 2330 UTC 21 April 2019
Temperature: 18.0°C (64°F)
Dewpoint: 16.0°C (61°F) [RH = 88%]
Pressure (altimeter): 30.06 inches Hg (1018.0 mb)
Winds: from the WSW (240 degrees) at 3 MPH (3 knots; 1.5 m/s)
Visibility: 6 or more miles (10+ km)
Ceiling: at least 12,000 feet AGL
Clouds: few clouds at 2500 feet AGL
Weather: no significant weather observed at this time

METAR text: HRYR 212300Z 22003KT 9999 SCT025 18/16 Q1018 NOSIG
Conditions at: HRYR (KIGALI , RW) observed 2300 UTC 21 April 2019
Temperature: 18.0°C (64°F)
Dewpoint: 16.0°C (61°F) [RH = 88%]
Pressure (altimeter): 30.06 inches Hg (1018.0 mb)
Winds: from the SW (220 degrees) at 3 MPH (3 knots; 1.5 m/s)
Visibility: 6 or more miles (10+ km)
Ceiling: at least 12,000 feet AGL
Clouds: scattered clouds at 2500 feet AGL
Weather: no significant weather observed at this time

METAR text: HRYR 212230Z 32006KT 9999 SCT025 18/16 Q1018 NOSIG
Conditions at: HRYR (KIGALI , RW) observed 2230 UTC 21 April 2019
Temperature: 18.0°C (64°F)
Dewpoint: 16.0°C (61°F) [RH = 88%]
Pressure (altimeter): 30.06 inches Hg (1018.0 mb)
Winds: from the NW (320 degrees) at 7 MPH (6 knots; 3.1 m/s)
Visibility: 6 or more miles (10+ km)
Ceiling: at least 12,000 feet AGL
Clouds: scattered clouds at 2500 feet AGL
Weather: no significant weather observed at this time

METAR text: HRYR 212200Z 32007KT 9999 SCT025 SCT100 18/16 Q1019 NOSIG
Conditions at: HRYR (KIGALI , RW) observed 2200 UTC 21 April 2019
Temperature: 18.0°C (64°F)
Dewpoint: 16.0°C (61°F) [RH = 88%]
Pressure (altimeter): 30.09 inches Hg (1019.0 mb)
Winds: from the NW (320 degrees) at 8 MPH (7 knots; 3.6 m/s)
Visibility: 6 or more miles (10+ km)
Ceiling: at least 12,000 feet AGL
Clouds: scattered clouds at 2500 feet AGL
scattered clouds at 10000 feet AGL
Weather: no significant weather observed at this time

METAR text: HRYR 212130Z 31006KT 9999 SCT025 SCT100 19/16 Q1019 NOSIG
Conditions at: HRYR (KIGALI , RW) observed 2130 UTC 21 April 2019
Temperature: 19.0°C (66°F)
Dewpoint: 16.0°C (61°F) [RH = 83%]
Pressure (altimeter): 30.09 inches Hg (1019.0 mb)
Winds: from the NW (310 degrees) at 7 MPH (6 knots; 3.1 m/s)
Visibility: 6 or more miles (10+ km)
Ceiling: at least 12,000 feet AGL
Clouds: scattered clouds at 2500 feet AGL
scattered clouds at 10000 feet AGL
Weather: no significant weather observed at this time

METAR text: HRYR 212100Z 34003KT 9999 SCT025 SCT100 19/16 Q1019 NOSIG
Conditions at: HRYR (KIGALI , RW) observed 2100 UTC 21 April 2019
Temperature: 19.0°C (66°F)
Dewpoint: 16.0°C (61°F) [RH = 83%]
Pressure (altimeter): 30.09 inches Hg (1019.0 mb)
Winds: from the NNW (340 degrees) at 3 MPH (3 knots; 1.5 m/s)
Visibility: 6 or more miles (10+ km)
Ceiling: at least 12,000 feet AGL
Clouds: scattered clouds at 2500 feet AGL
scattered clouds at 10000 feet AGL
Weather: no significant weather observed at this time

METAR text: HRYR 212030Z 30004KT 9999 SCT025 SCT100 19/16 Q1019 NOSIG
Conditions at: HRYR (KIGALI , RW) observed 2030 UTC 21 April 2019
Temperature: 19.0°C (66°F)
Dewpoint: 16.0°C (61°F) [RH = 83%]
Pressure (altimeter): 30.09 inches Hg (1019.0 mb)
Winds: from the WNW (300 degrees) at 5 MPH (4 knots; 2.1 m/s)
Visibility: 6 or more miles (10+ km)
Ceiling: at least 12,000 feet AGL
Clouds: scattered clouds at 2500 feet AGL
scattered clouds at 10000 feet AGL
Weather: no significant weather observed at this time

METAR text: HRYR 212000Z 29006KT 9999 SCT025 19/16 Q1019 NOSIG
Conditions at: HRYR (KIGALI , RW) observed 2000 UTC 21 April 2019
Temperature: 19.0°C (66°F)
Dewpoint: 16.0°C (61°F) [RH = 83%]
Pressure (altimeter): 30.09 inches Hg (1019.0 mb)
Winds: from the WNW (290 degrees) at 7 MPH (6 knots; 3.1 m/s)
Visibility: 6 or more miles (10+ km)
Ceiling: at least 12,000 feet AGL
Clouds: scattered clouds at 2500 feet AGL
Weather: no significant weather observed at this time

METAR text: HRYR 211930Z 32004KT 9999 FEW025 SCT100 20/17 Q1019 NOSIG
Conditions at: HRYR (KIGALI , RW) observed 1930 UTC 21 April 2019
Temperature: 20.0°C (68°F)
Dewpoint: 17.0°C (63°F) [RH = 83%]
Pressure (altimeter): 30.09 inches Hg (1019.0 mb)
Winds: from the NW (320 degrees) at 5 MPH (4 knots; 2.1 m/s)
Visibility: 6 or more miles (10+ km)
Ceiling: at least 12,000 feet AGL
Clouds: few clouds at 2500 feet AGL
scattered clouds at 10000 feet AGL
Weather: no significant weather observed at this time

METAR text: HRYR 211900Z 32005KT 9999 FEW025 SCT100 20/17 Q1019 NOSIG
Conditions at: HRYR (KIGALI , RW) observed 1900 UTC 21 April 2019
Temperature: 20.0°C (68°F)
Dewpoint: 17.0°C (63°F) [RH = 83%]
Pressure (altimeter): 30.09 inches Hg (1019.0 mb)
Winds: from the NW (320 degrees) at 6 MPH (5 knots; 2.6 m/s)
Visibility: 6 or more miles (10+ km)
Ceiling: at least 12,000 feet AGL
Clouds: few clouds at 2500 feet AGL
scattered clouds at 10000 feet AGL
Weather: no significant weather observed at this time

METAR text: HRYR 211830Z 23003KT 9999 FEW025 SCT100 21/16 Q1018 NOSIG
Conditions at: HRYR (KIGALI , RW) observed 1830 UTC 21 April 2019
Temperature: 21.0°C (70°F)
Dewpoint: 16.0°C (61°F) [RH = 73%]
Pressure (altimeter): 30.06 inches Hg (1018.0 mb)
Winds: from the SW (230 degrees) at 3 MPH (3 knots; 1.5 m/s)
Visibility: 6 or more miles (10+ km)
Ceiling: at least 12,000 feet AGL
Clouds: few clouds at 2500 feet AGL
scattered clouds at 10000 feet AGL
Weather: no significant weather observed at this time

METAR text: HRYR 211800Z VRB01KT 9999 FEW025 SCT100 22/16 Q1017 NOSIG
Conditions at: HRYR (KIGALI , RW) observed 1800 UTC 21 April 2019
Temperature: 22.0°C (72°F)
Dewpoint: 16.0°C (61°F) [RH = 69%]
Pressure (altimeter): 30.03 inches Hg (1017.0 mb)
Winds: variable direction winds at 1 MPH (1 knots; 0.5 m/s)
Visibility: 6 or more miles (10+ km)
Ceiling: at least 12,000 feet AGL
Clouds: few clouds at 2500 feet AGL
scattered clouds at 10000 feet AGL
Weather: no significant weather observed at this time

METAR text: HRYR 211730Z VRB01KT 9999 FEW025 SCT100 22/15 Q1017 NOSIG
Conditions at: HRYR (KIGALI , RW) observed 1730 UTC 21 April 2019
Temperature: 22.0°C (72°F)
Dewpoint: 15.0°C (59°F) [RH = 65%]
Pressure (altimeter): 30.03 inches Hg (1017.0 mb)
Winds: variable direction winds at 1 MPH (1 knots; 0.5 m/s)
Visibility: 6 or more miles (10+ km)
Ceiling: at least 12,000 feet AGL
Clouds: few clouds at 2500 feet AGL
scattered clouds at 10000 feet AGL
Weather: no significant weather observed at this time

METAR text: HRYR 211700Z VRB02KT 9999 FEW025 SCT100 22/15 Q1016 NOSIG
Conditions at: HRYR (KIGALI , RW) observed 1700 UTC 21 April 2019
Temperature: 22.0°C (72°F)
Dewpoint: 15.0°C (59°F) [RH = 65%]
Pressure (altimeter): 30.00 inches Hg (1016.0 mb)
Winds: variable direction winds at 2 MPH (2 knots; 1.0 m/s)
Visibility: 6 or more miles (10+ km)
Ceiling: at least 12,000 feet AGL
Clouds: few clouds at 2500 feet AGL
scattered clouds at 10000 feet AGL
Weather: no significant weather observed at this time

METAR text: HRYR 211600Z 15004KT 9999 FEW025 SCT100 21/15 Q1016 NOSIG
Conditions at: HRYR (KIGALI , RW) observed 1600 UTC 21 April 2019
Temperature: 21.0°C (70°F)
Dewpoint: 15.0°C (59°F) [RH = 69%]
Pressure (altimeter): 30.00 inches Hg (1016.0 mb)
Winds: from the SSE (150 degrees) at 5 MPH (4 knots; 2.1 m/s)
Visibility: 6 or more miles (10+ km)
Ceiling: at least 12,000 feet AGL
Clouds: few clouds at 2500 feet AGL
scattered clouds at 10000 feet AGL
Weather: no significant weather observed at this time

METAR text: HRYR 211530Z 19003KT 9999 FEW025 SCT100 23/16 Q1015 NOSIG
Conditions at: HRYR (KIGALI , RW) observed 1530 UTC 21 April 2019
Temperature: 23.0°C (73°F)
Dewpoint: 16.0°C (61°F) [RH = 65%]
Pressure (altimeter): 29.97 inches Hg (1015.0 mb)
Winds: from the S (190 degrees) at 3 MPH (3 knots; 1.5 m/s)
Visibility: 6 or more miles (10+ km)
Ceiling: at least 12,000 feet AGL
Clouds: few clouds at 2500 feet AGL
scattered clouds at 10000 feet AGL
Weather: no significant weather observed at this time

METAR text: HRYR 211500Z 20004KT 160V250 9999 FEW025 SCT100 24/16 Q1015 NOSIG
Conditions at: HRYR (KIGALI , RW) observed 1500 UTC 21 April 2019
Temperature: 24.0°C (75°F)
Dewpoint: 16.0°C (61°F) [RH = 61%]
Pressure (altimeter): 29.97 inches Hg (1015.0 mb)
Winds: from the SSW (200 degrees) at 5 MPH (4 knots; 2.1 m/s)
Visibility: 6 or more miles (10+ km)
Ceiling: at least 12,000 feet AGL
Clouds: few clouds at 2500 feet AGL
scattered clouds at 10000 feet AGL
Weather: no significant weather observed at this time

METAR text: HRYR 211430Z 14003KT 090V190 9999 FEW025 SCT100 23/17 Q1015 NOSIG
Conditions at: HRYR (KIGALI , RW) observed 1430 UTC 21 April 2019
Temperature: 23.0°C (73°F)
Dewpoint: 17.0°C (63°F) [RH = 69%]
Pressure (altimeter): 29.97 inches Hg (1015.0 mb)
Winds: from the SE (140 degrees) at 3 MPH (3 knots; 1.5 m/s)
Visibility: 6 or more miles (10+ km)
Ceiling: at least 12,000 feet AGL
Clouds: few clouds at 2500 feet AGL
scattered clouds at 10000 feet AGL
Weather: no significant weather observed at this time

METAR text: HRYR 211400Z 15004KT 110V200 9999 FEW025 SCT100 24/16 Q1015 NOSIG
Conditions at: HRYR (KIGALI , RW) observed 1400 UTC 21 April 2019
Temperature: 24.0°C (75°F)
Dewpoint: 16.0°C (61°F) [RH = 61%]
Pressure (altimeter): 29.97 inches Hg (1015.0 mb)
Winds: from the SSE (150 degrees) at 5 MPH (4 knots; 2.1 m/s)
Visibility: 6 or more miles (10+ km)
Ceiling: at least 12,000 feet AGL
Clouds: few clouds at 2500 feet AGL
scattered clouds at 10000 feet AGL
Weather: no significant weather observed at this time

METAR text: HRYR 211330Z 14006KT 9999 FEW025 SCT100 24/17 Q1015 NOSIG
Conditions at: HRYR (KIGALI , RW) observed 1330 UTC 21 April 2019
Temperature: 24.0°C (75°F)
Dewpoint: 17.0°C (63°F) [RH = 65%]
Pressure (altimeter): 29.97 inches Hg (1015.0 mb)
Winds: from the SE (140 degrees) at 7 MPH (6 knots; 3.1 m/s)
Visibility: 6 or more miles (10+ km)
Ceiling: at least 12,000 feet AGL
Clouds: few clouds at 2500 feet AGL
scattered clouds at 10000 feet AGL
Weather: no significant weather observed at this time

METAR text: HRYR 211300Z VRB02KT 9999 FEW025 24/16 Q1016 NOSIG
Conditions at: HRYR (KIGALI , RW) observed 1300 UTC 21 April 2019
Temperature: 24.0°C (75°F)
Dewpoint: 16.0°C (61°F) [RH = 61%]
Pressure (altimeter): 30.00 inches Hg (1016.0 mb)
Winds: variable direction winds at 2 MPH (2 knots; 1.0 m/s)
Visibility: 6 or more miles (10+ km)
Ceiling: at least 12,000 feet AGL
Clouds: few clouds at 2500 feet AGL
Weather: no significant weather observed at this time

METAR text: HRYR 211230Z 25004KT 150V300 9999 SCT023 SCT100 25/17 Q1016 NOSIG
Conditions at: HRYR (KIGALI , RW) observed 1230 UTC 21 April 2019
Temperature: 25.0°C (77°F)
Dewpoint: 17.0°C (63°F) [RH = 61%]
Pressure (altimeter): 30.00 inches Hg (1016.0 mb)
Winds: from the WSW (250 degrees) at 5 MPH (4 knots; 2.1 m/s)
Visibility: 6 or more miles (10+ km)
Ceiling: at least 12,000 feet AGL
Clouds: scattered clouds at 2300 feet AGL
scattered clouds at 10000 feet AGL
Weather: no significant weather observed at this time

METAR text: HRYR 211200Z VRB04KT 9999 SCT023 SCT100 25/17 Q1017 NOSIG
Conditions at: HRYR (KIGALI , RW) observed 1200 UTC 21 April 2019
Temperature: 25.0°C (77°F)
Dewpoint: 17.0°C (63°F) [RH = 61%]
Pressure (altimeter): 30.03 inches Hg (1017.0 mb)
Winds: variable direction winds at 5 MPH (4 knots; 2.1 m/s)
Visibility: 6 or more miles (10+ km)
Ceiling: at least 12,000 feet AGL
Clouds: scattered clouds at 2300 feet AGL
scattered clouds at 10000 feet AGL
Weather: no significant weather observed at this time

METAR text: HRYR 211130Z 28004KT 180V330 9999 SCT023 BKN100 24/17 Q1018 NOSIG
Conditions at: HRYR (KIGALI , RW) observed 1130 UTC 21 April 2019
Temperature: 24.0°C (75°F)
Dewpoint: 17.0°C (63°F) [RH = 65%]
Pressure (altimeter): 30.06 inches Hg (1018.0 mb)
Winds: from the W (280 degrees) at 5 MPH (4 knots; 2.1 m/s)
Visibility: 6 or more miles (10+ km)
Ceiling: 10000 feet AGL
Clouds: scattered clouds at 2300 feet AGL
broken clouds at 10000 feet AGL
Weather: no significant weather observed at this time

METAR text: HRYR 211100Z 27003KT 170V330 9999 SCT023 BKN100 23/17 Q1019 NOSIG
Conditions at: HRYR (KIGALI , RW) observed 1100 UTC 21 April 2019
Temperature: 23.0°C (73°F)
Dewpoint: 17.0°C (63°F) [RH = 69%]
Pressure (altimeter): 30.09 inches Hg (1019.0 mb)
Winds: from the W (270 degrees) at 3 MPH (3 knots; 1.5 m/s)
Visibility: 6 or more miles (10+ km)
Ceiling: 10000 feet AGL
Clouds: scattered clouds at 2300 feet AGL
broken clouds at 10000 feet AGL
Weather: no significant weather observed at this time

METAR text: HRYR 211030Z VRB03KT 9999 SCT025 BKN100 23/16 Q1020 NOSIG
Conditions at: HRYR (KIGALI , RW) observed 1030 UTC 21 April 2019
Temperature: 23.0°C (73°F)
Dewpoint: 16.0°C (61°F) [RH = 65%]
Pressure (altimeter): 30.12 inches Hg (1020.0 mb)
Winds: variable direction winds at 3 MPH (3 knots; 1.5 m/s)
Visibility: 6 or more miles (10+ km)
Ceiling: 10000 feet AGL
Clouds: scattered clouds at 2500 feet AGL
broken clouds at 10000 feet AGL
Weather: no significant weather observed at this time

METAR text: HRYR 211000Z 31006KT 270V330 9999 SCT025 BKN100 21/19 Q1021 NOSIG
Conditions at: HRYR (KIGALI , RW) observed 1000 UTC 21 April 2019
Temperature: 21.0°C (70°F)
Dewpoint: 19.0°C (66°F) [RH = 88%]
Pressure (altimeter): 30.15 inches Hg (1021.0 mb)
Winds: from the NW (310 degrees) at 7 MPH (6 knots; 3.1 m/s)
Visibility: 6 or more miles (10+ km)
Ceiling: 10000 feet AGL
Clouds: scattered clouds at 2500 feet AGL
broken clouds at 10000 feet AGL
Weather: no significant weather observed at this time

METAR text: HRYR 210930Z 32006KT 9999 -RA SCT025 BKN100 20/17 Q1022 NOSIG
Conditions at: HRYR (KIGALI , RW) observed 0930 UTC 21 April 2019
Temperature: 20.0°C (68°F)
Dewpoint: 17.0°C (63°F) [RH = 83%]
Pressure (altimeter): 30.18 inches Hg (1022.0 mb)
Winds: from the NW (320 degrees) at 7 MPH (6 knots; 3.1 m/s)
Visibility: 6 or more miles (10+ km)
Ceiling: 10000 feet AGL
Clouds: scattered clouds at 2500 feet AGL
broken clouds at 10000 feet AGL
Weather: -RA  (light rain)

METAR text: HRYR 210900Z 31006KT 9999 SCT020 BKN100 19/17 Q1022 NOSIG
Conditions at: HRYR (KIGALI , RW) observed 0900 UTC 21 April 2019
Temperature: 19.0°C (66°F)
Dewpoint: 17.0°C (63°F) [RH = 88%]
Pressure (altimeter): 30.18 inches Hg (1022.0 mb)
Winds: from the NW (310 degrees) at 7 MPH (6 knots; 3.1 m/s)
Visibility: 6 or more miles (10+ km)
Ceiling: 10000 feet AGL
Clouds: scattered clouds at 2000 feet AGL
broken clouds at 10000 feet AGL
Weather: no significant weather observed at this time

METAR text: HRYR 210830Z 27005KT 240V310 9999 -RA BKN020 BKN100 19/18 Q1022 NOSIG
Conditions at: HRYR (KIGALI , RW) observed 0830 UTC 21 April 2019
Temperature: 19.0°C (66°F)
Dewpoint: 18.0°C (64°F) [RH = 94%]
Pressure (altimeter): 30.18 inches Hg (1022.0 mb)
Winds: from the W (270 degrees) at 6 MPH (5 knots; 2.6 m/s)
Visibility: 6 or more miles (10+ km)
Ceiling: 2000 feet AGL
Clouds: broken clouds at 2000 feet AGL
broken clouds at 10000 feet AGL
Weather: -RA  (light rain)

METAR text: HRYR 210800Z 26004KT 230V290 9999 -RA BKN020 BKN100 19/17 Q1023 NOSIG
Conditions at: HRYR (KIGALI , RW) observed 0800 UTC 21 April 2019
Temperature: 19.0°C (66°F)
Dewpoint: 17.0°C (63°F) [RH = 88%]
Pressure (altimeter): 30.21 inches Hg (1023.0 mb)
Winds: from the W (260 degrees) at 5 MPH (4 knots; 2.1 m/s)
Visibility: 6 or more miles (10+ km)
Ceiling: 2000 feet AGL
Clouds: broken clouds at 2000 feet AGL
broken clouds at 10000 feet AGL
Weather: -RA  (light rain)

METAR text: HRYR 210730Z VRB02KT 9999 BKN020 BKN100 19/17 Q1023 NOSIG
Conditions at: HRYR (KIGALI , RW) observed 0730 UTC 21 April 2019
Temperature: 19.0°C (66°F)
Dewpoint: 17.0°C (63°F) [RH = 88%]
Pressure (altimeter): 30.21 inches Hg (1023.0 mb)
Winds: variable direction winds at 2 MPH (2 knots; 1.0 m/s)
Visibility: 6 or more miles (10+ km)
Ceiling: 2000 feet AGL
Clouds: broken clouds at 2000 feet AGL
broken clouds at 10000 feet AGL
Weather: no significant weather observed at this time

METAR text: HRYR 210700Z VRB02KT 9999 FEW010 BKN025 BKN100 19/17 Q1022 NOSIG
Conditions at: HRYR (KIGALI , RW) observed 0700 UTC 21 April 2019
Temperature: 19.0°C (66°F)
Dewpoint: 17.0°C (63°F) [RH = 88%]
Pressure (altimeter): 30.18 inches Hg (1022.0 mb)
Winds: variable direction winds at 2 MPH (2 knots; 1.0 m/s)
Visibility: 6 or more miles (10+ km)
Ceiling: 2500 feet AGL
Clouds: few clouds at 1000 feet AGL
broken clouds at 2500 feet AGL
broken clouds at 10000 feet AGL
Weather: no significant weather observed at this time

METAR text: HRYR 210630Z 14006KT 100V180 9999 -RA FEW008 BKN025 BKN100 19/17 Q1022 NOSIG
Conditions at: HRYR (KIGALI , RW) observed 0630 UTC 21 April 2019
Temperature: 19.0°C (66°F)
Dewpoint: 17.0°C (63°F) [RH = 88%]
Pressure (altimeter): 30.18 inches Hg (1022.0 mb)
Winds: from the SE (140 degrees) at 7 MPH (6 knots; 3.1 m/s)
Visibility: 6 or more miles (10+ km)
Ceiling: 2500 feet AGL
Clouds: few clouds at 800 feet AGL
broken clouds at 2500 feet AGL
broken clouds at 10000 feet AGL
Weather: -RA  (light rain)

METAR text: HRYR 210600Z VRB04KT 9999 -RA FEW023 BKN025 BKN100 18/18 Q1021 NOSIG
Conditions at: HRYR (KIGALI , RW) observed 0600 UTC 21 April 2019
Temperature: 18.0°C (64°F)
Dewpoint: 18.0°C (64°F) [RH = 100%]
Pressure (altimeter): 30.15 inches Hg (1021.0 mb)
Winds: variable direction winds at 5 MPH (4 knots; 2.1 m/s)
Visibility: 6 or more miles (10+ km)
Ceiling: 2500 feet AGL
Clouds: few clouds at 2300 feet AGL
broken clouds at 2500 feet AGL
broken clouds at 10000 feet AGL
Weather: -RA  (light rain)

METAR text: HRYR 210530Z 16008KT 130V190 1600 RA BKN023 BKN100 18/18 Q1020 NOSIG
Conditions at: HRYR (KIGALI , RW) observed 0530 UTC 21 April 2019
Temperature: 18.0°C (64°F)
Dewpoint: 18.0°C (64°F) [RH = 100%]
Pressure (altimeter): 30.12 inches Hg (1020.0 mb)
Winds: from the SSE (160 degrees) at 9 MPH (8 knots; 4.1 m/s)
Visibility: 0.99 miles (1.59 km)
Ceiling: 2300 feet AGL
Clouds: broken clouds at 2300 feet AGL
broken clouds at 10000 feet AGL
Weather: RA  (moderate rain)

METAR text: HRYR 210500Z 15007KT 8000 4500S BR FEW002 BKN025 18/17 Q1020 NOSIG
Conditions at: HRYR (KIGALI , RW) observed 0500 UTC 21 April 2019
Temperature: 18.0°C (64°F)
Dewpoint: 17.0°C (63°F) [RH = 94%]
Pressure (altimeter): 30.12 inches Hg (1020.0 mb)
Winds: from the SSE (150 degrees) at 8 MPH (7 knots; 3.6 m/s)
Visibility: 5 miles ( 8 km)
Ceiling: 2500 feet AGL
Clouds: few clouds at 200 feet AGL
broken clouds at 2500 feet AGL
Weather: BR  (mist)

METAR text: HRYR 210430Z 00000KT 9999 BKN025 SCT100 18/17 Q1019 NOSIG
Conditions at: HRYR (KIGALI , RW) observed 0430 UTC 21 April 2019
Temperature: 18.0°C (64°F)
Dewpoint: 17.0°C (63°F) [RH = 94%]
Pressure (altimeter): 30.09 inches Hg (1019.0 mb)
Winds: calm
Visibility: 6 or more miles (10+ km)
Ceiling: 2500 feet AGL
Clouds: broken clouds at 2500 feet AGL
scattered clouds at 10000 feet AGL
Weather: no significant weather observed at this time

METAR text: HRYR 210400Z 29004KT 9999 BKN025 SCT100 18/17 Q1019 NOSIG
Conditions at: HRYR (KIGALI , RW) observed 0400 UTC 21 April 2019
Temperature: 18.0°C (64°F)
Dewpoint: 17.0°C (63°F) [RH = 94%]
Pressure (altimeter): 30.09 inches Hg (1019.0 mb)
Winds: from the WNW (290 degrees) at 5 MPH (4 knots; 2.1 m/s)
Visibility: 6 or more miles (10+ km)
Ceiling: 2500 feet AGL
Clouds: broken clouds at 2500 feet AGL
scattered clouds at 10000 feet AGL
Weather: no significant weather observed at this time

METAR text: HRYR 210330Z 34005KT 9999 BKN026 SCT100 18/17 Q1018 NOSIG
Conditions at: HRYR (KIGALI , RW) observed 0330 UTC 21 April 2019
Temperature: 18.0°C (64°F)
Dewpoint: 17.0°C (63°F) [RH = 94%]
Pressure (altimeter): 30.06 inches Hg (1018.0 mb)
Winds: from the NNW (340 degrees) at 6 MPH (5 knots; 2.6 m/s)
Visibility: 6 or more miles (10+ km)
Ceiling: 2600 feet AGL
Clouds: broken clouds at 2600 feet AGL
scattered clouds at 10000 feet AGL
Weather: no significant weather observed at this time

METAR text: HRYR 210300Z 34003KT 9999 SCT026 SCT100 18/17 Q1018 NOSIG
Conditions at: HRYR (KIGALI , RW) observed 0300 UTC 21 April 2019
Temperature: 18.0°C (64°F)
Dewpoint: 17.0°C (63°F) [RH = 94%]
Pressure (altimeter): 30.06 inches Hg (1018.0 mb)
Winds: from the NNW (340 degrees) at 3 MPH (3 knots; 1.5 m/s)
Visibility: 6 or more miles (10+ km)
Ceiling: at least 12,000 feet AGL
Clouds: scattered clouds at 2600 feet AGL
scattered clouds at 10000 feet AGL
Weather: no significant weather observed at this time

METAR text: HRYR 210230Z 00000KT 9999 SCT026 SCT100 18/17 Q1018 NOSIG
Conditions at: HRYR (KIGALI , RW) observed 0230 UTC 21 April 2019
Temperature: 18.0°C (64°F)
Dewpoint: 17.0°C (63°F) [RH = 94%]
Pressure (altimeter): 30.06 inches Hg (1018.0 mb)
Winds: calm
Visibility: 6 or more miles (10+ km)
Ceiling: at least 12,000 feet AGL
Clouds: scattered clouds at 2600 feet AGL
scattered clouds at 10000 feet AGL
Weather: no significant weather observed at this time

METAR text: HRYR 210200Z 01003KT 320V080 9999 SCT026 SCT100 18/16 Q1018 NOSIG
Conditions at: HRYR (KIGALI , RW) observed 0200 UTC 21 April 2019
Temperature: 18.0°C (64°F)
Dewpoint: 16.0°C (61°F) [RH = 88%]
Pressure (altimeter): 30.06 inches Hg (1018.0 mb)
Winds: from the N (10 degrees) at 3 MPH (3 knots; 1.5 m/s)
Visibility: 6 or more miles (10+ km)
Ceiling: at least 12,000 feet AGL
Clouds: scattered clouds at 2600 feet AGL
scattered clouds at 10000 feet AGL
Weather: no significant weather observed at this time

Forecast for: HRYR (KIGALI , RW)
Text: HRYR 221100Z 2212/2318 16008KT 9999 SCT025 BKN100
Forecast period: 1200 to 1500 UTC 22 April 2019
Forecast type: FROM: standard forecast or significant change
Winds: from the SSE (160 degrees) at 9 MPH (8 knots; 4.1 m/s)
Visibility: 6 or more miles 10+ km)
Ceiling: 10000 feet AGL
Clouds: scattered clouds at 2500 feet AGL
broken clouds at 10000 feet AGL
Weather: no significant weather forecast for this period
Text: TEMPO 2211/2213 02008KT -RA FEW008 BKN023 BKN100
Forecast period: 1100 to 1300 UTC 22 April 2019
Forecast type: TEMPORARY: The following changes expected for less than half the time period
Winds: from the NNE (20 degrees) at 9 MPH (8 knots; 4.1 m/s)
Visibility: missing
Ceiling: 2300 feet AGL
Clouds: few clouds at 800 feet AGL
broken clouds at 2300 feet AGL
broken clouds at 10000 feet AGL
Weather: -RA  (light rain)
Text: BECMG 2215/2220 25006KT SCT025 BKN100
Forecast period: 1500 UTC 22 April 2019 to 0200 UTC 23 April 2019
Forecast type: BECOMING: Conditions expected to become as follows by 2000 UTC 22 April 2019
Winds: from the WSW (250 degrees) at 7 MPH (6 knots; 3.1 m/s)
Visibility: 6 or more miles 10+ km)
Ceiling: 10000 feet AGL
Clouds: scattered clouds at 2500 feet AGL
broken clouds at 10000 feet AGL
Weather: no significant weather forecast for this period
Text: BECMG 2302/2305 00000KT 8000 FM 230800 16005KT 9999 BKN025
Forecast period: 0200 to 0800 UTC 23 April 2019
Forecast type: BECOMING: Conditions expected to become as follows by 0500 UTC 23 April 2019
Winds: calm
Visibility: 5 miles (8 km)
Ceiling: 10000 feet AGL
Clouds: scattered clouds at 2500 feet AGL
broken clouds at 10000 feet AGL
Weather: no significant weather forecast for this period
Text: BECMG 2311/2315 17010G20KT -TSRA FEW022CB BKN023
Forecast period: 0800 to 1100 UTC 23 April 2019
Forecast type: FROM: standard forecast or significant change
Winds: from the SSE (160 degrees) at 6 MPH (5 knots; 2.6 m/s)
Visibility: 6 or more miles 10+ km)
Ceiling: 2500 feet AGL
Clouds: broken clouds at 2500 feet AGL
Weather: no significant weather forecast for this period
Text:
Forecast period: 1100 to 1800 UTC 23 April 2019
Forecast type: BECOMING: Conditions expected to become as follows by 1500 UTC 23 April 2019
Winds: from the S (170 degrees) at 12 MPH (10 knots; 5.1 m/s)
gusting to 23 MPH (20 knots; 10.3 m/s)
Visibility: 6 or more miles 10+ km)
Ceiling: 2300 feet AGL
Clouds: few clouds at 2200 feet AGL
broken clouds at 2300 feet AGL
Weather: -TSRA  (light rain associated with thunderstorm(s))